Etusivu
METAR-TAF:

METAR-TAF

Lentoasemat :

Grider Field

Pine Bluff, Arkansas, Yhdysvallat

Leveyspiiri: 34-10-30N, Pituuspiiri: 091-56-05W, korkeus merenpinnasta: 63 m

Tämänhetkinen sää

Tämä raportti tehtiin 38 minuuttia sitten, kello 04.53 UTC
tyyntä
Lämpötila 26°C
Kosteus 84%
Ilmanpaine 1019 hPa
Näkyvyys: 16.1 km
selkeää

METAR: KPBF 220453Z AUTO 00000KT 10SM CLR 26/23 A3010 RMK AO2 SLP188 T02560233

Aika: 00:31 (05:31 UTC)

Sääennuste

Tämä raportti tehtiin 6 tuntia ja 11 minuuttia sitten, kello 23.20 UTC
Ennuste voimassa 22. päivästä klo 00 UTC - 22. päivään klo 24 UTC
Tuuli 4 kn eri suunnista
Näkyvyys: 10 km
Hajanaisia pilviä 25000 ft:n korkeudessa
From 22. päivästä klo 1500 UTC
Tuuli 7 kn etelästä/lounaasta
Näkyvyys: 10 km
Hajanaisia pilviä 5000 ft:n korkeudessa

TAF: KPBF 212320Z 2200/2224 VRB04KT P6SM SCT250 FM221500 20007KT P6SM SCT050

Säähavainnot ja -ennusteet yli 4000 lentoasemalta (METAR- ja TAF-raportit).

Käytössä olevat sääasemat on merkitty karttaan keltaisilla ja punaisilla pisteillä.

Aseta hiiri pisteen päälle nähdäksesi sääaseman nimen.

Klikkaa sitten nähdäksesi säähavainnot ja -ennusteet.

Kartan vaihtaminen: klikkaa mustalla rastilla varustettuja vihreitä pisteitä, niin voit zoomata sisään; viivalla varustettua vihreää pistettä, niin voit zoomata ulos tai vihreitä nuolia, niin pääset viereisille kartoille.


METAR-TAF: